sensor_id;sensor_type;location;lat;lon;timestamp;pressure;altitude;pressure_sealevel;temperature;humidity
76858;BME280;65830;0.000;0.000;2022-12-29T00:01:15;100889.38;;;6.54;68.25
76858;BME280;65830;0.000;0.000;2022-12-29T00:03:41;100883.41;;;6.34;69.06
76858;BME280;65830;0.000;0.000;2022-12-29T00:06:06;100892.09;;;6.36;69.01
76858;BME280;65830;0.000;0.000;2022-12-29T00:08:32;100884.78;;;6.24;69.04
76858;BME280;65830;0.000;0.000;2022-12-29T00:11:07;100893.81;;;6.20;69.05
76858;BME280;65830;0.000;0.000;2022-12-29T00:13:34;100893.81;;;6.20;69.59
76858;BME280;65830;0.000;0.000;2022-12-29T00:16:17;100887.94;;;6.15;69.38
76858;BME280;65830;0.000;0.000;2022-12-29T00:18:43;100895.41;;;6.07;69.79
76858;BME280;65830;0.000;0.000;2022-12-29T00:21:15;100905.53;;;6.14;69.79
76858;BME280;65830;0.000;0.000;2022-12-29T00:24:00;100904.47;;;6.01;70.16
76858;BME280;65830;0.000;0.000;2022-12-29T00:26:44;100903.97;;;6.10;70.39
76858;BME280;65830;0.000;0.000;2022-12-29T00:29:45;100904.22;;;6.06;70.38
76858;BME280;65830;0.000;0.000;2022-12-29T00:32:30;100904.66;;;6.14;70.32
76858;BME280;65830;0.000;0.000;2022-12-29T00:35:17;100914.75;;;6.23;70.07
76858;BME280;65830;0.000;0.000;2022-12-29T00:37:45;100917.84;;;6.14;70.53
76858;BME280;65830;0.000;0.000;2022-12-29T00:40:29;100915.22;;;6.14;70.25
76858;BME280;65830;0.000;0.000;2022-12-29T00:43:13;100925.09;;;6.26;69.60
76858;BME280;65830;0.000;0.000;2022-12-29T00:45:57;100924.38;;;6.40;69.30
76858;BME280;65830;0.000;0.000;2022-12-29T00:48:23;100928.38;;;6.31;69.76
76858;BME280;65830;0.000;0.000;2022-12-29T00:51:07;100930.03;;;6.16;70.34
76858;BME280;65830;0.000;0.000;2022-12-29T00:53:33;100940.41;;;6.20;70.11
76858;BME280;65830;0.000;0.000;2022-12-29T00:55:59;100938.22;;;6.28;70.17
76858;BME280;65830;0.000;0.000;2022-12-29T00:58:28;100932.97;;;6.44;69.35
76858;BME280;65830;0.000;0.000;2022-12-29T01:01:00;100939.53;;;6.36;69.72
76858;BME280;65830;0.000;0.000;2022-12-29T01:03:26;100932.66;;;6.50;69.25
76858;BME280;65830;0.000;0.000;2022-12-29T01:05:52;100930.97;;;6.49;69.51
76858;BME280;65830;0.000;0.000;2022-12-29T01:08:17;100933.03;;;6.60;69.11
76858;BME280;65830;0.000;0.000;2022-12-29T01:10:44;100931.34;;;6.59;69.17
76858;BME280;65830;0.000;0.000;2022-12-29T01:13:09;100926.16;;;6.40;69.35
76858;BME280;65830;0.000;0.000;2022-12-29T01:15:34;100927.28;;;6.18;69.73
76858;BME280;65830;0.000;0.000;2022-12-29T01:18:00;100921.63;;;6.26;70.05
76858;BME280;65830;0.000;0.000;2022-12-29T01:20:25;100917.44;;;6.22;69.38
76858;BME280;65830;0.000;0.000;2022-12-29T01:22:52;100931.78;;;6.33;69.58
76858;BME280;65830;0.000;0.000;2022-12-29T01:25:19;100931.25;;;6.27;69.10
76858;BME280;65830;0.000;0.000;2022-12-29T01:27:44;100927.59;;;6.29;69.10
76858;BME280;65830;0.000;0.000;2022-12-29T01:30:11;100921.81;;;6.05;70.14
76858;BME280;65830;0.000;0.000;2022-12-29T01:32:37;100925.59;;;6.17;70.26
76858;BME280;65830;0.000;0.000;2022-12-29T01:35:02;100918.63;;;6.16;69.97
76858;BME280;65830;0.000;0.000;2022-12-29T01:37:28;100916.75;;;6.18;69.38
76858;BME280;65830;0.000;0.000;2022-12-29T01:39:53;100922.19;;;6.15;69.66
76858;BME280;65830;0.000;0.000;2022-12-29T01:42:19;100915.06;;;6.17;68.99
76858;BME280;65830;0.000;0.000;2022-12-29T01:44:52;100911.47;;;6.18;68.86
76858;BME280;65830;0.000;0.000;2022-12-29T01:48:00;100903.44;;;6.21;69.03
76858;BME280;65830;0.000;0.000;2022-12-29T01:53:02;100895.03;;;6.30;69.10
76858;BME280;65830;0.000;0.000;2022-12-29T01:55:31;100889.91;;;6.27;69.25
76858;BME280;65830;0.000;0.000;2022-12-29T01:57:58;100886.38;;;6.28;68.74
76858;BME280;65830;0.000;0.000;2022-12-29T02:00:26;100884.16;;;6.36;69.00
76858;BME280;65830;0.000;0.000;2022-12-29T02:02:52;100885.38;;;6.47;68.35
76858;BME280;65830;0.000;0.000;2022-12-29T02:08:01;100870.41;;;6.63;67.75
76858;BME280;65830;0.000;0.000;2022-12-29T02:10:27;100867.97;;;6.76;67.38
76858;BME280;65830;0.000;0.000;2022-12-29T02:12:55;100861.75;;;6.77;66.73
76858;BME280;65830;0.000;0.000;2022-12-29T02:15:26;100862.00;;;6.72;67.34
76858;BME280;65830;0.000;0.000;2022-12-29T02:18:20;100850.09;;;6.81;67.38
76858;BME280;65830;0.000;0.000;2022-12-29T02:20:50;100853.06;;;6.75;67.63
76858;BME280;65830;0.000;0.000;2022-12-29T02:31:01;100840.97;;;6.87;67.02
76858;BME280;65830;0.000;0.000;2022-12-29T02:36:26;100837.41;;;6.88;66.38
76858;BME280;65830;0.000;0.000;2022-12-29T02:39:02;100834.31;;;6.95;66.31
76858;BME280;65830;0.000;0.000;2022-12-29T02:41:32;100835.19;;;6.96;66.62
76858;BME280;65830;0.000;0.000;2022-12-29T02:49:13;100835.97;;;6.98;66.94
76858;BME280;65830;0.000;0.000;2022-12-29T02:54:10;100830.75;;;6.96;66.33
76858;BME280;65830;0.000;0.000;2022-12-29T02:56:54;100829.25;;;6.76;67.15
76858;BME280;65830;0.000;0.000;2022-12-29T02:59:20;100830.69;;;6.66;67.26
76858;BME280;65830;0.000;0.000;2022-12-29T03:10:30;100828.72;;;6.54;68.11
76858;BME280;65830;0.000;0.000;2022-12-29T03:13:12;100830.00;;;6.47;67.87
76858;BME280;65830;0.000;0.000;2022-12-29T03:19:00;100819.88;;;6.39;68.12
76858;BME280;65830;0.000;0.000;2022-12-29T03:21:34;100824.81;;;6.61;67.43
76858;BME280;65830;0.000;0.000;2022-12-29T03:24:22;100828.97;;;6.49;67.57
76858;BME280;65830;0.000;0.000;2022-12-29T03:26:48;100829.06;;;6.48;68.34
76858;BME280;65830;0.000;0.000;2022-12-29T03:29:16;100823.78;;;6.48;67.64
76858;BME280;65830;0.000;0.000;2022-12-29T03:31:44;100816.47;;;6.37;68.66
76858;BME280;65830;0.000;0.000;2022-12-29T03:34:12;100822.88;;;6.49;68.14
76858;BME280;65830;0.000;0.000;2022-12-29T03:36:42;100829.06;;;6.48;68.39
76858;BME280;65830;0.000;0.000;2022-12-29T03:39:10;100824.13;;;6.42;68.24
76858;BME280;65830;0.000;0.000;2022-12-29T03:41:37;100818.91;;;6.24;68.30
76858;BME280;65830;0.000;0.000;2022-12-29T03:44:06;100822.31;;;6.26;68.40
76858;BME280;65830;0.000;0.000;2022-12-29T03:46:32;100819.75;;;6.09;69.11
76858;BME280;65830;0.000;0.000;2022-12-29T03:48:58;100823.47;;;6.05;68.37
76858;BME280;65830;0.000;0.000;2022-12-29T03:51:24;100824.59;;;6.01;68.50
76858;BME280;65830;0.000;0.000;2022-12-29T03:53:49;100819.53;;;5.96;68.50
76858;BME280;65830;0.000;0.000;2022-12-29T03:56:15;100818.22;;;6.05;68.60
76858;BME280;65830;0.000;0.000;2022-12-29T03:58:41;100816.69;;;5.83;68.65
76858;BME280;65830;0.000;0.000;2022-12-29T04:01:10;100815.28;;;5.76;69.16
76858;BME280;65830;0.000;0.000;2022-12-29T04:03:37;100820.22;;;5.82;69.12
76858;BME280;65830;0.000;0.000;2022-12-29T04:06:04;100820.22;;;5.82;69.49
76858;BME280;65830;0.000;0.000;2022-12-29T04:08:37;100823.94;;;5.78;69.59
76858;BME280;65830;0.000;0.000;2022-12-29T04:11:02;100826.13;;;5.70;69.55
76858;BME280;65830;0.000;0.000;2022-12-29T04:13:28;100827.84;;;5.71;70.38
76858;BME280;65830;0.000;0.000;2022-12-29T04:15:54;100834.28;;;5.65;70.19
76858;BME280;65830;0.000;0.000;2022-12-29T04:18:20;100840.41;;;5.66;70.28
76858;BME280;65830;0.000;0.000;2022-12-29T04:20:45;100838.00;;;5.61;70.05
76858;BME280;65830;0.000;0.000;2022-12-29T04:23:33;100834.03;;;5.52;70.45
76858;BME280;65830;0.000;0.000;2022-12-29T04:25:59;100836.97;;;5.46;70.39
76858;BME280;65830;0.000;0.000;2022-12-29T04:28:26;100838.06;;;5.42;70.95
76858;BME280;65830;0.000;0.000;2022-12-29T04:30:51;100843.72;;;5.52;71.22
76858;BME280;65830;0.000;0.000;2022-12-29T04:33:23;100850.78;;;5.51;70.95
76858;BME280;65830;0.000;0.000;2022-12-29T04:35:49;100853.88;;;5.42;71.19
76858;BME280;65830;0.000;0.000;2022-12-29T04:38:15;100850.31;;;5.43;71.02
76858;BME280;65830;0.000;0.000;2022-12-29T04:40:42;100858.81;;;5.48;70.85
76858;BME280;65830;0.000;0.000;2022-12-29T04:43:09;100864.38;;;5.25;71.38
76858;BME280;65830;0.000;0.000;2022-12-29T04:45:49;100865.00;;;5.30;71.71
76858;BME280;65830;0.000;0.000;2022-12-29T04:48:27;100869.78;;;5.22;72.00
76858;BME280;65830;0.000;0.000;2022-12-29T04:51:09;100865.44;;;5.21;72.25
76858;BME280;65830;0.000;0.000;2022-12-29T04:53:38;100871.56;;;5.21;72.69
76858;BME280;65830;0.000;0.000;2022-12-29T04:56:03;100870.38;;;5.09;72.67
76858;BME280;65830;0.000;0.000;2022-12-29T04:58:29;100878.91;;;5.14;72.02
76858;BME280;65830;0.000;0.000;2022-12-29T05:00:54;100876.50;;;5.10;71.91
76858;BME280;65830;0.000;0.000;2022-12-29T05:03:23;100876.03;;;5.02;72.66
76858;BME280;65830;0.000;0.000;2022-12-29T05:05:48;100879.34;;;5.05;72.30
76858;BME280;65830;0.000;0.000;2022-12-29T05:08:14;100873.50;;;5.17;72.21
76858;BME280;65830;0.000;0.000;2022-12-29T05:10:43;100880.38;;;5.20;72.05
76858;BME280;65830;0.000;0.000;2022-12-29T05:13:10;100885.94;;;5.14;72.04
76858;BME280;65830;0.000;0.000;2022-12-29T05:15:36;100884.75;;;5.02;72.46
76858;BME280;65830;0.000;0.000;2022-12-29T05:18:20;100889.25;;;5.00;72.29
76858;BME280;65830;0.000;0.000;2022-12-29T05:20:46;100883.91;;;5.02;72.13
76858;BME280;65830;0.000;0.000;2022-12-29T05:23:12;100883.56;;;4.90;72.32
76858;BME280;65830;0.000;0.000;2022-12-29T05:25:38;100874.19;;;4.85;72.64
76858;BME280;65830;0.000;0.000;2022-12-29T05:28:26;100871.97;;;4.75;72.15
76858;BME280;65830;0.000;0.000;2022-12-29T05:31:04;100863.88;;;4.61;72.73
76858;BME280;65830;0.000;0.000;2022-12-29T05:33:30;100870.50;;;4.51;73.00
76858;BME280;65830;0.000;0.000;2022-12-29T05:35:56;100871.78;;;4.61;73.57
76858;BME280;65830;0.000;0.000;2022-12-29T05:38:22;100872.44;;;4.66;73.54
76858;BME280;65830;0.000;0.000;2022-12-29T05:40:48;100872.75;;;4.77;73.36
76858;BME280;65830;0.000;0.000;2022-12-29T05:43:32;100870.09;;;4.60;73.00
76858;BME280;65830;0.000;0.000;2022-12-29T05:46:16;100862.81;;;4.65;72.43
76858;BME280;65830;0.000;0.000;2022-12-29T05:49:05;100856.44;;;4.71;72.40
76858;BME280;65830;0.000;0.000;2022-12-29T05:54:58;100853.16;;;4.85;71.64
76858;BME280;65830;0.000;0.000;2022-12-29T05:57:25;100848.66;;;5.06;71.54
76858;BME280;65830;0.000;0.000;2022-12-29T06:00:02;100851.28;;;4.87;71.98
76858;BME280;65830;0.000;0.000;2022-12-29T06:02:29;100856.63;;;4.85;71.71
76858;BME280;65830;0.000;0.000;2022-12-29T06:04:54;100861.97;;;4.84;71.40
76858;BME280;65830;0.000;0.000;2022-12-29T06:07:21;100864.59;;;4.84;71.42
76858;BME280;65830;0.000;0.000;2022-12-29T06:09:47;100867.59;;;4.76;71.92
76858;BME280;65830;0.000;0.000;2022-12-29T06:12:13;100863.97;;;4.78;71.63
76858;BME280;65830;0.000;0.000;2022-12-29T06:14:40;100861.97;;;4.65;71.89
76858;BME280;65830;0.000;0.000;2022-12-29T06:17:06;100856.34;;;4.72;72.54
76858;BME280;65830;0.000;0.000;2022-12-29T06:19:33;100852.50;;;4.80;71.81
76858;BME280;65830;0.000;0.000;2022-12-29T06:21:58;100857.28;;;4.71;72.07
76858;BME280;65830;0.000;0.000;2022-12-29T06:24:24;100859.13;;;4.69;72.09
76858;BME280;65830;0.000;0.000;2022-12-29T06:26:49;100864.38;;;4.69;72.51
76858;BME280;65830;0.000;0.000;2022-12-29T06:29:16;100876.75;;;4.67;72.52
76858;BME280;65830;0.000;0.000;2022-12-29T06:31:43;100871.69;;;5.01;72.30
76858;BME280;65830;0.000;0.000;2022-12-29T06:34:11;100877.81;;;5.18;71.28
76858;BME280;65830;0.000;0.000;2022-12-29T06:36:36;100875.72;;;5.08;71.59
76858;BME280;65830;0.000;0.000;2022-12-29T06:39:03;100882.25;;;4.99;71.83
76858;BME280;65830;0.000;0.000;2022-12-29T06:41:29;100882.44;;;4.96;71.96
76858;BME280;65830;0.000;0.000;2022-12-29T06:44:15;100881.97;;;5.05;72.29
76858;BME280;65830;0.000;0.000;2022-12-29T06:46:54;100886.13;;;4.92;72.70
76858;BME280;65830;0.000;0.000;2022-12-29T06:49:19;100897.06;;;5.02;72.74
76858;BME280;65830;0.000;0.000;2022-12-29T06:51:45;100896.84;;;5.06;71.99
76858;BME280;65830;0.000;0.000;2022-12-29T06:54:10;100902.66;;;5.13;72.35
76858;BME280;65830;0.000;0.000;2022-12-29T06:56:36;100898.03;;;5.18;72.41
76858;BME280;65830;0.000;0.000;2022-12-29T06:59:01;100899.16;;;5.31;70.99
76858;BME280;65830;0.000;0.000;2022-12-29T07:01:27;100905.03;;;5.36;71.55
76858;BME280;65830;0.000;0.000;2022-12-29T07:03:52;100909.06;;;5.44;71.59
76858;BME280;65830;0.000;0.000;2022-12-29T07:06:18;100916.13;;;5.43;71.08
76858;BME280;65830;0.000;0.000;2022-12-29T07:08:43;100911.28;;;5.34;71.73
76858;BME280;65830;0.000;0.000;2022-12-29T07:11:09;100911.00;;;5.40;71.34
76858;BME280;65830;0.000;0.000;2022-12-29T07:13:34;100911.91;;;5.39;71.24
76858;BME280;65830;0.000;0.000;2022-12-29T07:16:04;100922.59;;;5.36;70.99
76858;BME280;65830;0.000;0.000;2022-12-29T07:18:30;100921.22;;;5.10;71.48
76858;BME280;65830;0.000;0.000;2022-12-29T07:20:55;100922.78;;;5.14;71.31
76858;BME280;65830;0.000;0.000;2022-12-29T07:23:21;100917.94;;;5.24;71.08
76858;BME280;65830;0.000;0.000;2022-12-29T07:25:46;100913.94;;;5.34;70.55
76858;BME280;65830;0.000;0.000;2022-12-29T07:28:12;100918.19;;;5.36;70.76
76858;BME280;65830;0.000;0.000;2022-12-29T07:30:39;100908.25;;;5.24;70.75
76858;BME280;65830;0.000;0.000;2022-12-29T07:33:05;100919.56;;;5.07;71.48
76858;BME280;65830;0.000;0.000;2022-12-29T07:35:30;100908.25;;;5.24;70.80
76858;BME280;65830;0.000;0.000;2022-12-29T07:37:55;100911.13;;;5.20;70.54
76858;BME280;65830;0.000;0.000;2022-12-29T07:40:21;100912.81;;;5.21;70.52
76858;BME280;65830;0.000;0.000;2022-12-29T07:42:46;100908.66;;;5.34;70.22
76858;BME280;65830;0.000;0.000;2022-12-29T07:45:14;100904.72;;;5.43;69.56
76858;BME280;65830;0.000;0.000;2022-12-29T07:47:58;100910.84;;;5.43;68.67
76858;BME280;65830;0.000;0.000;2022-12-29T07:50:24;100905.81;;;5.56;68.88
76858;BME280;65830;0.000;0.000;2022-12-29T07:52:49;100909.00;;;5.63;68.13
76858;BME280;65830;0.000;0.000;2022-12-29T07:55:15;100907.63;;;5.55;68.66
76858;BME280;65830;0.000;0.000;2022-12-29T07:57:41;100906.22;;;5.66;68.63
76858;BME280;65830;0.000;0.000;2022-12-29T08:00:06;100911.94;;;5.74;68.83
76858;BME280;65830;0.000;0.000;2022-12-29T08:02:37;100909.25;;;5.75;68.86
76858;BME280;65830;0.000;0.000;2022-12-29T08:05:02;100919.53;;;5.63;68.66
76858;BME280;65830;0.000;0.000;2022-12-29T08:07:28;100914.72;;;5.88;68.71
76858;BME280;65830;0.000;0.000;2022-12-29T08:09:53;100914.94;;;6.03;68.20
76858;BME280;65830;0.000;0.000;2022-12-29T08:12:19;100917.69;;;6.17;67.26
76858;BME280;65830;0.000;0.000;2022-12-29T08:14:44;100927.34;;;6.01;68.30
76858;BME280;65830;0.000;0.000;2022-12-29T08:17:10;100919.84;;;6.26;67.35
76858;BME280;65830;0.000;0.000;2022-12-29T08:19:36;100920.56;;;6.46;66.55
76858;BME280;65830;0.000;0.000;2022-12-29T08:22:01;100911.41;;;6.53;66.06
76858;BME280;65830;0.000;0.000;2022-12-29T08:24:27;100918.84;;;6.62;65.72
76858;BME280;65830;0.000;0.000;2022-12-29T08:26:52;100912.03;;;6.58;65.77
76858;BME280;65830;0.000;0.000;2022-12-29T08:29:18;100915.69;;;6.71;65.09
76858;BME280;65830;0.000;0.000;2022-12-29T08:31:44;100916.13;;;6.80;65.42
76858;BME280;65830;0.000;0.000;2022-12-29T08:34:10;100913.06;;;6.87;64.96
76858;BME280;65830;0.000;0.000;2022-12-29T08:36:36;100915.69;;;6.71;65.59
76858;BME280;65830;0.000;0.000;2022-12-29T08:39:01;100912.81;;;6.92;65.54
76858;BME280;65830;0.000;0.000;2022-12-29T08:41:27;100906.88;;;6.88;65.36
76858;BME280;65830;0.000;0.000;2022-12-29T08:43:52;100910.69;;;6.83;66.60
76858;BME280;65830;0.000;0.000;2022-12-29T08:46:18;100899.38;;;6.81;66.79
76858;BME280;65830;0.000;0.000;2022-12-29T08:48:44;100902.84;;;6.97;66.11
76858;BME280;65830;0.000;0.000;2022-12-29T08:51:10;100900.41;;;6.94;65.54
76858;BME280;65830;0.000;0.000;2022-12-29T08:53:35;100891.03;;;7.04;65.96
76858;BME280;65830;0.000;0.000;2022-12-29T08:56:02;100897.41;;;7.16;65.38
76858;BME280;65830;0.000;0.000;2022-12-29T08:58:28;100888.97;;;7.09;66.23
76858;BME280;65830;0.000;0.000;2022-12-29T09:00:58;100881.72;;;7.29;64.91
76858;BME280;65830;0.000;0.000;2022-12-29T09:03:23;100879.38;;;7.39;64.61
76858;BME280;65830;0.000;0.000;2022-12-29T09:05:50;100879.53;;;7.51;64.95
76858;BME280;65830;0.000;0.000;2022-12-29T09:08:16;100875.41;;;7.62;64.52
76858;BME280;65830;0.000;0.000;2022-12-29T09:10:42;100867.06;;;7.69;63.57
76858;BME280;65830;0.000;0.000;2022-12-29T09:13:07;100853.72;;;7.71;64.04
76858;BME280;65830;0.000;0.000;2022-12-29T09:15:33;100862.91;;;7.80;63.13
76858;BME280;65830;0.000;0.000;2022-12-29T09:17:58;100859.22;;;7.82;62.99
76858;BME280;65830;0.000;0.000;2022-12-29T09:20:24;100859.44;;;7.93;63.05
76858;BME280;65830;0.000;0.000;2022-12-29T09:22:50;100848.31;;;8.03;62.72
76858;BME280;65830;0.000;0.000;2022-12-29T09:25:15;100845.28;;;7.94;62.98
76858;BME280;65830;0.000;0.000;2022-12-29T09:27:41;100843.03;;;8.03;62.69
76858;BME280;65830;0.000;0.000;2022-12-29T09:30:07;100840.94;;;8.08;62.64
76858;BME280;65830;0.000;0.000;2022-12-29T09:32:34;100837.84;;;8.15;62.67
76858;BME280;65830;0.000;0.000;2022-12-29T09:34:59;100838.28;;;8.22;61.52
76858;BME280;65830;0.000;0.000;2022-12-29T09:37:25;100834.34;;;8.29;61.99
76858;BME280;65830;0.000;0.000;2022-12-29T09:39:50;100819.69;;;8.38;61.81
76858;BME280;65830;0.000;0.000;2022-12-29T09:42:22;100817.91;;;8.39;61.89
76858;BME280;65830;0.000;0.000;2022-12-29T09:47:34;100813.38;;;8.26;61.99
76858;BME280;65830;0.000;0.000;2022-12-29T09:50:10;100806.31;;;8.41;61.61
76858;BME280;65830;0.000;0.000;2022-12-29T09:52:44;100799.84;;;8.60;60.68
76858;BME280;65830;0.000;0.000;2022-12-29T09:55:21;100794.22;;;8.79;60.88
76858;BME280;65830;0.000;0.000;2022-12-29T09:57:49;100792.09;;;8.84;60.36
76858;BME280;65830;0.000;0.000;2022-12-29T10:00:19;100789.19;;;8.88;60.13
76858;BME280;65830;0.000;0.000;2022-12-29T10:05:17;100782.63;;;8.94;59.53
76858;BME280;65830;0.000;0.000;2022-12-29T10:17:58;100770.97;;;9.24;58.40
76858;BME280;65830;0.000;0.000;2022-12-29T10:20:28;100765.25;;;9.30;58.37
76858;BME280;65830;0.000;0.000;2022-12-29T10:25:41;100752.97;;;9.42;58.16
76858;BME280;65830;0.000;0.000;2022-12-29T10:28:15;100757.63;;;9.38;58.15
76858;BME280;65830;0.000;0.000;2022-12-29T10:30:42;100750.00;;;9.46;57.71
76858;BME280;65830;0.000;0.000;2022-12-29T10:33:10;100751.50;;;9.50;57.92
76858;BME280;65830;0.000;0.000;2022-12-29T10:35:38;100751.81;;;9.59;57.70
76858;BME280;65830;0.000;0.000;2022-12-29T10:40:42;100742.03;;;9.59;58.19
76858;BME280;65830;0.000;0.000;2022-12-29T10:43:51;100740.56;;;9.81;57.49
76858;BME280;65830;0.000;0.000;2022-12-29T10:45:58;100739.88;;;10.03;56.86
76858;BME280;65830;0.000;0.000;2022-12-29T10:48:25;100730.75;;;10.20;56.72
76858;BME280;65830;0.000;0.000;2022-12-29T10:50:54;100742.41;;;10.30;56.51
76858;BME280;65830;0.000;0.000;2022-12-29T10:53:22;100735.19;;;10.56;55.80
76858;BME280;65830;0.000;0.000;2022-12-29T10:55:49;100732.94;;;10.87;55.21
76858;BME280;65830;0.000;0.000;2022-12-29T10:58:15;100725.91;;;11.10;54.69
76858;BME280;65830;0.000;0.000;2022-12-29T11:00:41;100728.03;;;11.40;53.68
76858;BME280;65830;0.000;0.000;2022-12-29T11:05:54;100720.53;;;11.34;53.80
76858;BME280;65830;0.000;0.000;2022-12-29T11:08:22;100706.06;;;11.38;53.21
76858;BME280;65830;0.000;0.000;2022-12-29T11:10:59;100707.88;;;11.83;52.61
76858;BME280;65830;0.000;0.000;2022-12-29T11:13:27;100714.91;;;12.29;51.36
76858;BME280;65830;0.000;0.000;2022-12-29T11:15:53;100703.22;;;13.27;49.02
76858;BME280;65830;0.000;0.000;2022-12-29T11:18:20;100700.78;;;14.86;45.80
76858;BME280;65830;0.000;0.000;2022-12-29T11:20:47;100690.38;;;16.88;42.75
76858;BME280;65830;0.000;0.000;2022-12-29T11:28:32;100691.97;;;19.03;36.08
76858;BME280;65830;0.000;0.000;2022-12-29T11:30:59;100682.19;;;18.94;35.97
76858;BME280;65830;0.000;0.000;2022-12-29T11:33:26;100681.88;;;20.95;33.31
76858;BME280;65830;0.000;0.000;2022-12-29T11:35:56;100683.88;;;21.01;34.30
76858;BME280;65830;0.000;0.000;2022-12-29T11:38:23;100683.09;;;20.15;34.41
76858;BME280;65830;0.000;0.000;2022-12-29T11:40:50;100687.22;;;21.86;31.95
76858;BME280;65830;0.000;0.000;2022-12-29T11:43:37;100679.28;;;22.93;31.00
76858;BME280;65830;0.000;0.000;2022-12-29T11:46:03;100681.66;;;23.03;30.86
76858;BME280;65830;0.000;0.000;2022-12-29T11:48:31;100678.03;;;22.31;30.33
76858;BME280;65830;0.000;0.000;2022-12-29T11:50:57;100676.16;;;23.18;30.27
76858;BME280;65830;0.000;0.000;2022-12-29T11:55:56;100673.03;;;24.39;28.58
76858;BME280;65830;0.000;0.000;2022-12-29T11:58:29;100661.44;;;24.58;28.66
76858;BME280;65830;0.000;0.000;2022-12-29T12:00:55;100653.38;;;23.06;29.02
76858;BME280;65830;0.000;0.000;2022-12-29T12:03:22;100656.84;;;23.56;29.79
76858;BME280;65830;0.000;0.000;2022-12-29T12:05:56;100653.47;;;23.47;29.07
76858;BME280;65830;0.000;0.000;2022-12-29T12:08:36;100646.66;;;23.23;29.64
76858;BME280;65830;0.000;0.000;2022-12-29T12:16:11;100648.34;;;23.31;29.98
76858;BME280;65830;0.000;0.000;2022-12-29T12:21:16;100636.50;;;23.73;29.42
76858;BME280;65830;0.000;0.000;2022-12-29T12:26:19;100637.22;;;23.19;29.05
76858;BME280;65830;0.000;0.000;2022-12-29T12:28:51;100633.84;;;22.89;29.46
76858;BME280;65830;0.000;0.000;2022-12-29T12:32:09;100644.56;;;22.17;30.89
76858;BME280;65830;0.000;0.000;2022-12-29T12:34:06;100632.13;;;22.01;31.55
76858;BME280;65830;0.000;0.000;2022-12-29T12:39:11;100631.06;;;21.21;31.95
76858;BME280;65830;0.000;0.000;2022-12-29T12:41:56;100632.72;;;21.08;31.79
76858;BME280;65830;0.000;0.000;2022-12-29T12:44:29;100627.94;;;20.95;32.39
76858;BME280;65830;0.000;0.000;2022-12-29T12:47:00;100625.78;;;21.58;32.51
76858;BME280;65830;0.000;0.000;2022-12-29T12:52:13;100619.34;;;21.29;31.63
76858;BME280;65830;0.000;0.000;2022-12-29T13:10:41;100630.47;;;20.04;33.84
76858;BME280;65830;0.000;0.000;2022-12-29T13:25:57;100625.56;;;19.76;34.38
76858;BME280;65830;0.000;0.000;2022-12-29T13:36:02;100621.50;;;19.64;34.43
76858;BME280;65830;0.000;0.000;2022-12-29T13:44:29;100627.88;;;16.70;39.66
76858;BME280;65830;0.000;0.000;2022-12-29T13:46:56;100620.50;;;15.72;41.83
76858;BME280;65830;0.000;0.000;2022-12-29T13:49:24;100626.59;;;15.27;43.01
76858;BME280;65830;0.000;0.000;2022-12-29T13:51:51;100624.56;;;15.01;43.48
76858;BME280;65830;0.000;0.000;2022-12-29T13:59:28;100631.59;;;13.64;46.98
76858;BME280;65830;0.000;0.000;2022-12-29T14:02:08;100631.16;;;13.07;48.12
76858;BME280;65830;0.000;0.000;2022-12-29T14:04:41;100634.41;;;12.90;49.00
76858;BME280;65830;0.000;0.000;2022-12-29T14:07:20;100632.38;;;12.82;49.60
76858;BME280;65830;0.000;0.000;2022-12-29T14:09:47;100628.53;;;12.96;49.27
76858;BME280;65830;0.000;0.000;2022-12-29T14:12:27;100632.19;;;12.95;49.01
76858;BME280;65830;0.000;0.000;2022-12-29T14:15:02;100631.03;;;12.67;49.63
76858;BME280;65830;0.000;0.000;2022-12-29T14:17:28;100632.69;;;12.47;50.81
76858;BME280;65830;0.000;0.000;2022-12-29T14:19:53;100635.41;;;12.24;51.19
76858;BME280;65830;0.000;0.000;2022-12-29T14:22:22;100634.41;;;12.37;51.01
76858;BME280;65830;0.000;0.000;2022-12-29T14:24:48;100633.03;;;12.21;51.52
76858;BME280;65830;0.000;0.000;2022-12-29T14:34:46;100641.78;;;11.33;53.94
76858;BME280;65830;0.000;0.000;2022-12-29T14:39:52;100641.25;;;11.05;54.86
76858;BME280;65830;0.000;0.000;2022-12-29T14:42:27;100650.34;;;11.14;54.80
76858;BME280;65830;0.000;0.000;2022-12-29T14:45:02;100637.66;;;11.18;54.54
76858;BME280;65830;0.000;0.000;2022-12-29T14:47:36;100645.06;;;10.79;55.57
76858;BME280;65830;0.000;0.000;2022-12-29T14:50:06;100648.47;;;10.81;55.61
76858;BME280;65830;0.000;0.000;2022-12-29T14:52:33;100646.13;;;10.76;55.74
76858;BME280;65830;0.000;0.000;2022-12-29T14:57:49;100633.91;;;10.62;56.24
76858;BME280;65830;0.000;0.000;2022-12-29T15:02:45;100646.16;;;10.52;56.83
76858;BME280;65830;0.000;0.000;2022-12-29T15:07:53;100638.03;;;10.42;57.48
76858;BME280;65830;0.000;0.000;2022-12-29T15:10:19;100642.50;;;10.42;56.94
76858;BME280;65830;0.000;0.000;2022-12-29T15:12:47;100638.66;;;10.22;57.78
76858;BME280;65830;0.000;0.000;2022-12-29T15:15:26;100653.72;;;10.21;57.84
76858;BME280;65830;0.000;0.000;2022-12-29T15:17:55;100649.06;;;10.12;58.03
76858;BME280;65830;0.000;0.000;2022-12-29T15:20:22;100655.13;;;10.14;58.00
76858;BME280;65830;0.000;0.000;2022-12-29T15:22:48;100656.47;;;10.20;58.05
76858;BME280;65830;0.000;0.000;2022-12-29T15:25:16;100658.22;;;10.08;58.25
76858;BME280;65830;0.000;0.000;2022-12-29T15:27:42;100644.88;;;9.97;58.57
76858;BME280;65830;0.000;0.000;2022-12-29T15:30:13;100650.00;;;9.87;58.97
76858;BME280;65830;0.000;0.000;2022-12-29T15:32:40;100653.81;;;9.83;59.02
76858;BME280;65830;0.000;0.000;2022-12-29T15:35:29;100658.53;;;9.66;59.51
76858;BME280;65830;0.000;0.000;2022-12-29T15:37:53;100658.53;;;9.66;59.68
76858;BME280;65830;0.000;0.000;2022-12-29T15:40:39;100663.53;;;9.58;59.70
76858;BME280;65830;0.000;0.000;2022-12-29T15:43:24;100664.16;;;9.62;59.94
76858;BME280;65830;0.000;0.000;2022-12-29T15:45:53;100653.91;;;9.44;60.28
76858;BME280;65830;0.000;0.000;2022-12-29T15:48:20;100658.34;;;9.44;60.09
76858;BME280;65830;0.000;0.000;2022-12-29T15:50:48;100657.47;;;9.43;60.91